Terminal Aerodrome Forecast
Issued by NWS

Home | Current Version | Previous Version | Text Only | Print | Product List | Glossary On
Versions: 1 2 3 4 5 6 7 8 9 10 11 12 13 14 15 16 17 18 19 20 21 22 23 24 25 26 27 28
000
FTUS42 KGSP 181258 AAA
TAFAND
TAF AMD
KAND 181258Z 1813/1912 08003KT 6SM BR OVC060
     FM181400 08006KT P6SM BKN060
     FM190400 08006KT P6SM OVC020
     FM190600 08005KT 4SM -SHRA BR OVC008
     FM190800 12008KT 3SM SHRA BR OVC003=

USA.gov is the U.S. government's official web portal to all federal, state and local government web resources and services.